createdAt,value
2023-01-17T00:02:03.494Z,4.40
2023-01-17T00:04:50.635Z,4.40
2023-01-17T00:07:39.050Z,4.40
2023-01-17T00:10:13.005Z,4.30
2023-01-17T00:12:47.689Z,4.30
2023-01-17T00:15:19.548Z,4.40
2023-01-17T00:17:48.621Z,4.30
2023-01-17T00:20:53.367Z,4.30
2023-01-17T00:23:37.594Z,4.30
2023-01-17T00:26:11.935Z,4.30
2023-01-17T00:28:41.488Z,4.20
2023-01-17T00:31:11.011Z,4.20
2023-01-17T00:33:38.537Z,4.10
2023-01-17T00:36:08.447Z,4.10
2023-01-17T00:38:38.380Z,4.00
2023-01-17T00:41:08.390Z,4.00
2023-01-17T00:43:54.675Z,3.90
2023-01-17T00:46:40.746Z,3.80
2023-01-17T00:49:27.358Z,3.80
2023-01-17T00:52:14.316Z,3.70
2023-01-17T01:00:33.877Z,3.50
2023-01-17T01:03:19.652Z,3.50
2023-01-17T01:08:53.074Z,3.40
2023-01-17T01:11:40.175Z,3.30
2023-01-17T01:14:28.567Z,3.30
2023-01-17T01:17:14.483Z,3.20
2023-01-17T01:20:00.145Z,3.20
2023-01-17T01:25:33.864Z,3.10
2023-01-17T01:28:24.032Z,3.10
2023-01-17T01:36:09.946Z,3.10
2023-01-17T01:41:08.573Z,3.00
2023-01-17T01:43:45.633Z,3.00
2023-01-17T01:46:18.346Z,3.00
2023-01-17T01:48:54.044Z,2.90
2023-01-17T01:51:28.673Z,2.90
2023-01-17T01:54:00.676Z,3.00
2023-01-17T01:56:31.637Z,2.90
2023-01-17T01:59:04.104Z,2.90
2023-01-17T02:04:09.770Z,2.90
2023-01-17T02:06:42.939Z,2.90
2023-01-17T02:09:15.070Z,2.90
2023-01-17T02:11:46.958Z,2.90
2023-01-17T02:14:17.145Z,2.90
2023-01-17T02:17:04.803Z,2.90
2023-01-17T02:20:34.695Z,2.80
2023-01-17T02:23:44.216Z,2.80
2023-01-17T02:26:46.537Z,2.80
2023-01-17T02:30:03.113Z,2.70
2023-01-17T02:32:58.725Z,2.70
2023-01-17T02:35:36.172Z,2.70
2023-01-17T02:38:21.868Z,2.60
2023-01-17T02:40:54.240Z,2.60
2023-01-17T02:43:25.796Z,2.60
2023-01-17T02:48:28.421Z,2.50
2023-01-17T02:51:38.780Z,2.50
2023-01-17T02:54:42.211Z,2.50
2023-01-17T02:57:35.438Z,2.40
2023-01-17T03:00:16.451Z,2.40
2023-01-17T03:02:56.853Z,2.50
2023-01-17T03:05:34.351Z,2.40
2023-01-17T03:08:03.884Z,2.40
2023-01-17T03:10:34.349Z,2.40
2023-01-17T03:15:32.442Z,2.30
2023-01-17T03:18:05.345Z,2.20
2023-01-17T03:20:36.262Z,2.30
2023-01-17T03:23:04.708Z,2.30
2023-01-17T03:30:30.016Z,2.30
2023-01-17T03:37:57.912Z,2.40
2023-01-17T03:40:26.250Z,2.40
2023-01-17T03:55:20.506Z,2.60
2023-01-17T04:00:18.273Z,2.70
2023-01-17T04:07:44.026Z,2.70
2023-01-17T04:10:12.564Z,2.70
2023-01-17T04:12:42.444Z,2.70
2023-01-17T04:15:12.057Z,2.70
2023-01-17T04:17:40.607Z,2.80
2023-01-17T04:20:15.054Z,2.70
2023-01-17T04:22:44.414Z,2.80
2023-01-17T04:25:12.888Z,2.70
2023-01-17T04:27:42.452Z,2.70
2023-01-17T04:30:12.948Z,2.80
2023-01-17T04:35:10.584Z,2.80
2023-01-17T04:37:39.542Z,2.80
2023-01-17T04:40:09.877Z,2.80
2023-01-17T04:45:10.139Z,2.70
2023-01-17T04:50:08.433Z,2.70
2023-01-17T04:55:06.063Z,2.70
2023-01-17T05:02:32.970Z,2.60
2023-01-17T05:07:29.702Z,2.70
2023-01-17T05:12:29.542Z,2.70
2023-01-17T05:19:56.312Z,2.70
2023-01-17T05:27:21.741Z,2.70
2023-01-17T05:37:18.721Z,2.70
2023-01-17T05:42:15.545Z,2.70
2023-01-17T05:44:43.761Z,2.70
2023-01-17T05:47:11.947Z,2.70
2023-01-17T05:49:40.140Z,2.70
2023-01-17T05:54:39.313Z,2.70
2023-01-17T05:59:37.303Z,2.70
2023-01-17T06:04:34.699Z,2.60
2023-01-17T06:09:31.364Z,2.50
2023-01-17T06:12:00.987Z,2.40
2023-01-17T06:14:29.203Z,2.40
2023-01-17T06:16:57.381Z,2.40
2023-01-17T06:26:51.121Z,2.40
2023-01-17T06:29:20.758Z,2.40
2023-01-17T06:31:48.947Z,2.50
2023-01-17T06:39:15.326Z,2.50
2023-01-17T06:41:43.994Z,2.60
2023-01-17T06:44:12.466Z,2.60
2023-01-17T06:46:42.050Z,2.60
2023-01-17T06:54:07.379Z,2.90
2023-01-17T07:04:05.378Z,2.60
2023-01-17T07:06:33.648Z,2.60
2023-01-17T07:09:02.004Z,2.50
2023-01-17T07:13:59.021Z,2.50
2023-01-17T07:18:58.010Z,2.50
2023-01-17T07:21:27.558Z,2.50
2023-01-17T07:23:55.737Z,2.50
2023-01-17T07:26:23.997Z,2.50
2023-01-17T07:28:52.172Z,2.50
2023-01-17T07:38:48.863Z,2.50
2023-01-17T07:41:17.075Z,2.60
2023-01-17T07:46:15.173Z,2.60
2023-01-17T07:48:43.754Z,2.70
2023-01-17T07:53:40.588Z,2.70
2023-01-17T07:56:10.355Z,2.70
2023-01-17T08:01:12.477Z,2.70
2023-01-17T08:06:18.090Z,2.70
2023-01-17T08:11:16.574Z,2.70
2023-01-17T08:21:16.803Z,2.70
2023-01-17T08:26:21.497Z,2.80
2023-01-17T08:28:51.107Z,2.80
2023-01-17T08:36:17.334Z,3.30
2023-01-17T08:38:45.795Z,3.50
2023-01-17T08:41:14.274Z,3.80
2023-01-17T08:43:44.103Z,4.10
2023-01-17T08:46:12.529Z,4.40
2023-01-17T08:48:41.066Z,4.70
2023-01-17T08:51:09.952Z,4.90
2023-01-17T08:56:08.076Z,5.50
2023-01-17T09:01:07.463Z,6.10
2023-01-17T09:03:38.364Z,6.40
2023-01-17T09:06:11.136Z,6.60
2023-01-17T09:08:39.580Z,6.80
2023-01-17T09:11:11.031Z,7.00
2023-01-17T09:13:40.654Z,7.00
2023-01-17T09:16:11.115Z,7.00
2023-01-17T09:21:13.391Z,6.60
2023-01-17T09:26:19.871Z,6.20
2023-01-17T09:28:48.530Z,6.10
2023-01-17T09:31:18.833Z,6.00
2023-01-17T09:33:47.101Z,5.90
2023-01-17T09:36:15.707Z,5.80
2023-01-17T09:41:27.370Z,5.60
2023-01-17T09:44:02.696Z,5.60
2023-01-17T09:46:38.443Z,5.60
2023-01-17T09:49:14.227Z,5.60
2023-01-17T09:51:43.264Z,5.80
2023-01-17T09:54:22.049Z,5.90
2023-01-17T09:57:01.708Z,6.10
2023-01-17T09:59:39.757Z,6.10
2023-01-17T10:03:02.920Z,6.10
2023-01-17T10:05:48.936Z,6.10
2023-01-17T10:08:34.665Z,6.10
2023-01-17T10:11:28.333Z,6.10
2023-01-17T10:14:21.292Z,6.00
2023-01-17T10:16:56.089Z,5.90
2023-01-17T10:19:52.002Z,5.80
2023-01-17T10:22:51.163Z,5.90
2023-01-17T10:25:35.591Z,6.00
2023-01-17T10:28:10.879Z,6.00
2023-01-17T10:30:46.071Z,6.00
2023-01-17T10:33:20.771Z,6.00
2023-01-17T10:35:55.441Z,6.00
2023-01-17T10:38:30.239Z,5.90
2023-01-17T10:41:05.742Z,5.90
2023-01-17T10:43:52.718Z,5.90
2023-01-17T10:46:28.447Z,5.90
2023-01-17T10:48:57.761Z,5.90
2023-01-17T10:52:00.108Z,6.00
2023-01-17T10:54:56.498Z,6.20
2023-01-17T10:57:28.017Z,6.30
2023-01-17T11:00:01.437Z,6.30
2023-01-17T11:02:34.116Z,6.30
2023-01-17T11:05:12.199Z,6.30
2023-01-17T11:07:57.311Z,6.30
2023-01-17T11:10:43.824Z,6.30
2023-01-17T11:13:29.368Z,6.40
2023-01-17T11:16:02.206Z,6.40
2023-01-17T11:18:33.338Z,6.40
2023-01-17T11:21:12.733Z,6.40
2023-01-17T11:23:45.361Z,6.40
2023-01-17T11:26:24.297Z,6.40
2023-01-17T11:31:27.604Z,6.50
2023-01-17T11:34:18.037Z,6.50
2023-01-17T11:36:46.411Z,6.50
2023-01-17T11:39:29.485Z,6.50
2023-01-17T11:41:57.732Z,6.50
2023-01-17T11:44:28.116Z,6.50
2023-01-17T11:47:19.176Z,6.40
2023-01-17T11:49:49.985Z,6.40
2023-01-17T11:52:25.159Z,6.40
2023-01-17T11:54:56.251Z,6.30
2023-01-17T11:57:28.728Z,6.40
2023-01-17T12:00:11.623Z,6.30
2023-01-17T12:03:14.136Z,6.20
2023-01-17T12:05:56.863Z,6.20
2023-01-17T12:08:41.759Z,6.20
2023-01-17T12:11:19.738Z,6.10
2023-01-17T12:14:03.009Z,6.10
2023-01-17T12:16:52.611Z,6.10
2023-01-17T12:19:49.208Z,6.00
2023-01-17T12:22:42.621Z,6.00
2023-01-17T12:25:29.460Z,6.00
2023-01-17T12:28:19.723Z,5.90
2023-01-17T12:31:04.948Z,6.00
2023-01-17T12:33:45.956Z,6.00
2023-01-17T12:36:31.040Z,6.00
2023-01-17T12:39:05.214Z,6.00
2023-01-17T12:41:45.401Z,6.00
2023-01-17T12:44:19.302Z,6.00
2023-01-17T12:46:54.855Z,6.10
2023-01-17T12:49:43.779Z,6.10
2023-01-17T12:52:24.873Z,6.10
2023-01-17T12:54:59.286Z,6.10
2023-01-17T12:57:34.617Z,6.10
2023-01-17T13:00:11.448Z,6.10
2023-01-17T13:02:48.664Z,6.20
2023-01-17T13:05:23.630Z,6.40
2023-01-17T13:07:59.501Z,6.50
2023-01-17T13:10:36.343Z,6.60
2023-01-17T13:13:19.996Z,6.70
2023-01-17T13:15:54.124Z,6.90
2023-01-17T13:18:27.048Z,7.10
2023-01-17T13:21:14.049Z,7.20
2023-01-17T13:24:05.926Z,7.20
2023-01-17T13:27:05.533Z,7.30
2023-01-17T13:29:47.068Z,7.30
2023-01-17T13:32:38.936Z,7.40
2023-01-17T13:35:22.241Z,7.40
2023-01-17T13:38:12.661Z,7.40
2023-01-17T13:40:51.942Z,7.40
2023-01-17T13:43:25.653Z,7.30
2023-01-17T13:45:56.879Z,7.30
2023-01-17T13:48:38.010Z,7.20
2023-01-17T13:51:07.047Z,7.20
2023-01-17T13:53:57.244Z,7.20
2023-01-17T13:56:32.454Z,7.10
2023-01-17T13:59:21.793Z,7.00
2023-01-17T14:01:53.133Z,7.00
2023-01-17T14:04:24.723Z,6.90
2023-01-17T14:07:25.699Z,6.80
2023-01-17T14:09:54.037Z,6.80
2023-01-17T14:12:31.673Z,6.70
2023-01-17T14:15:02.506Z,6.60
2023-01-17T14:17:57.274Z,6.50
2023-01-17T14:20:52.199Z,6.40
2023-01-17T14:23:36.488Z,6.30
2023-01-17T14:26:49.677Z,6.20
2023-01-17T14:29:58.959Z,6.10
2023-01-17T14:32:31.380Z,6.00
2023-01-17T14:35:00.440Z,5.90
2023-01-17T14:37:43.163Z,5.90
2023-01-17T14:40:26.418Z,5.80
2023-01-17T14:43:02.402Z,5.70
2023-01-17T14:45:33.619Z,5.60
2023-01-17T14:48:05.522Z,5.70
2023-01-17T14:50:39.331Z,5.60
2023-01-17T14:53:19.967Z,5.60
2023-01-17T14:55:55.084Z,5.50
2023-01-17T14:58:26.536Z,5.50
2023-01-17T15:01:02.254Z,5.40
2023-01-17T15:03:34.455Z,5.40
2023-01-17T15:06:13.693Z,5.30
2023-01-17T15:08:43.618Z,5.30
2023-01-17T15:11:20.840Z,5.20
2023-01-17T15:13:53.262Z,5.20
2023-01-17T15:16:25.608Z,5.20
2023-01-17T15:18:55.870Z,5.10
2023-01-17T15:21:27.435Z,5.10
2023-01-17T15:23:59.969Z,5.10
2023-01-17T15:26:34.266Z,5.00
2023-01-17T15:29:07.498Z,5.00
2023-01-17T15:31:42.860Z,5.00
2023-01-17T15:34:22.981Z,4.90
2023-01-17T15:36:51.862Z,4.90
2023-01-17T15:39:24.863Z,4.80
2023-01-17T15:41:55.771Z,4.80
2023-01-17T15:44:42.606Z,4.80
2023-01-17T15:47:29.740Z,4.70
2023-01-17T15:52:27.079Z,4.70
2023-01-17T15:55:12.178Z,4.70
2023-01-17T15:57:40.866Z,4.60
2023-01-17T16:00:21.820Z,4.60
2023-01-17T16:02:55.097Z,4.50
2023-01-17T16:05:43.709Z,4.50
2023-01-17T16:08:33.947Z,4.50
2023-01-17T16:11:06.356Z,4.40
2023-01-17T16:13:37.752Z,4.40
2023-01-17T16:16:22.408Z,4.30
2023-01-17T16:18:56.898Z,4.30
2023-01-17T16:21:27.738Z,4.20
2023-01-17T16:26:27.585Z,4.10
2023-01-17T16:28:55.833Z,4.10
2023-01-17T16:31:24.180Z,4.10
2023-01-17T16:33:52.522Z,4.00
2023-01-17T16:36:22.765Z,4.00
2023-01-17T16:38:53.151Z,3.90
2023-01-17T16:41:21.874Z,3.90
2023-01-17T16:44:01.200Z,3.80
2023-01-17T16:46:30.673Z,3.80
2023-01-17T16:49:02.072Z,3.70
2023-01-17T16:53:59.452Z,3.70
2023-01-17T16:58:57.724Z,3.60
2023-01-17T17:03:54.900Z,3.50
2023-01-17T17:06:23.387Z,3.60
2023-01-17T17:08:51.601Z,3.50
2023-01-17T17:11:23.126Z,3.50
2023-01-17T17:13:52.707Z,3.40
2023-01-17T17:16:29.808Z,3.40
2023-01-17T17:19:01.001Z,3.40
2023-01-17T17:21:30.762Z,3.40
2023-01-17T17:24:01.277Z,3.40
2023-01-17T17:26:34.930Z,3.30
2023-01-17T17:29:04.200Z,3.30
2023-01-17T17:31:34.103Z,3.30
2023-01-17T17:34:04.703Z,3.30
2023-01-17T17:39:03.560Z,3.20
2023-01-17T17:41:34.439Z,3.20
2023-01-17T17:44:04.076Z,3.10
2023-01-17T17:46:34.880Z,3.10
2023-01-17T17:49:04.118Z,3.10
2023-01-17T17:51:35.033Z,3.10
2023-01-17T17:54:07.286Z,3.00
2023-01-17T17:59:07.315Z,3.00
2023-01-17T18:01:38.143Z,2.90
2023-01-17T18:04:07.845Z,2.90
2023-01-17T18:06:36.386Z,2.90
2023-01-17T18:09:05.823Z,2.90
2023-01-17T18:14:06.365Z,2.80
2023-01-17T18:16:41.379Z,2.80
2023-01-17T18:19:14.288Z,2.80
2023-01-17T18:24:13.928Z,2.80
2023-01-17T18:26:45.194Z,2.70
2023-01-17T18:29:15.904Z,2.70
2023-01-17T18:31:47.306Z,2.70
2023-01-17T18:34:19.222Z,2.70
2023-01-17T18:36:47.827Z,2.60
2023-01-17T18:39:18.445Z,2.70
2023-01-17T18:44:15.628Z,2.60
2023-01-17T18:49:16.466Z,2.50
2023-01-17T18:56:43.935Z,2.50
2023-01-17T18:59:14.277Z,2.50
2023-01-17T19:04:15.537Z,2.50
2023-01-17T19:06:47.008Z,2.50
2023-01-17T19:09:16.878Z,2.50
2023-01-17T19:11:46.520Z,2.50
2023-01-17T19:14:15.636Z,2.50
2023-01-17T19:19:16.785Z,2.50
2023-01-17T19:21:45.250Z,2.50
2023-01-17T19:24:14.227Z,2.50
2023-01-17T19:31:42.991Z,2.60
2023-01-17T19:34:13.664Z,2.60
2023-01-17T19:36:43.409Z,2.70
2023-01-17T19:39:11.795Z,2.70
2023-01-17T19:41:44.461Z,2.70
2023-01-17T19:44:15.021Z,2.70
2023-01-17T19:46:44.109Z,2.70
2023-01-17T19:49:12.468Z,2.70
2023-01-17T19:51:42.122Z,2.70
2023-01-17T19:59:07.456Z,2.70
2023-01-17T20:01:36.338Z,2.70
2023-01-17T20:04:05.624Z,2.70
2023-01-17T20:06:36.155Z,2.70
2023-01-17T20:09:06.834Z,2.70
2023-01-17T20:11:35.026Z,2.60
2023-01-17T20:14:05.440Z,2.60
2023-01-17T20:16:35.985Z,2.60
2023-01-17T20:19:05.035Z,2.50
2023-01-17T20:21:34.290Z,2.60
2023-01-17T20:26:36.047Z,2.50
2023-01-17T20:29:10.379Z,2.50
2023-01-17T20:31:40.339Z,2.50
2023-01-17T20:34:11.409Z,2.50
2023-01-17T20:36:41.583Z,2.50
2023-01-17T20:39:13.307Z,2.50
2023-01-17T20:41:44.607Z,2.50
2023-01-17T20:44:16.119Z,2.50
2023-01-17T20:46:45.689Z,2.40
2023-01-17T20:49:17.187Z,2.40
2023-01-17T20:51:46.640Z,2.40
2023-01-17T20:54:17.784Z,2.40
2023-01-17T20:56:48.114Z,2.40
2023-01-17T20:59:19.497Z,2.40
2023-01-17T21:01:48.230Z,2.40
2023-01-17T21:04:17.920Z,2.40
2023-01-17T21:06:47.486Z,2.40
2023-01-17T21:09:17.188Z,2.40
2023-01-17T21:11:46.876Z,2.40
2023-01-17T21:16:44.603Z,2.40
2023-01-17T21:19:15.793Z,2.40
2023-01-17T21:21:44.082Z,2.40
2023-01-17T21:26:45.662Z,2.40
2023-01-17T21:29:16.415Z,2.40
2023-01-17T21:31:45.177Z,2.40
2023-01-17T21:36:43.861Z,2.30
2023-01-17T21:39:15.641Z,2.30
2023-01-17T21:41:46.615Z,2.30
2023-01-17T21:44:20.203Z,2.30
2023-01-17T21:46:48.902Z,2.30
2023-01-17T21:52:03.656Z,2.30
2023-01-17T21:54:49.764Z,2.20
2023-01-17T21:57:38.627Z,2.20
2023-01-17T22:00:14.227Z,2.20
2023-01-17T22:02:46.221Z,2.20
2023-01-17T22:05:16.349Z,2.20
2023-01-17T22:08:06.337Z,2.20
2023-01-17T22:10:44.439Z,2.20
2023-01-17T22:13:14.443Z,2.10
2023-01-17T22:15:44.603Z,2.00
2023-01-17T22:18:14.495Z,2.10
2023-01-17T22:20:43.526Z,2.10
2023-01-17T22:23:12.329Z,2.10
2023-01-17T22:25:40.533Z,2.10
2023-01-17T22:28:08.773Z,2.10
2023-01-17T22:33:06.859Z,2.10
2023-01-17T22:35:35.114Z,2.10
2023-01-17T22:40:32.701Z,2.10
2023-01-17T22:50:27.827Z,2.10
2023-01-17T22:57:53.782Z,2.00
2023-01-17T23:00:22.459Z,2.10
2023-01-17T23:07:52.406Z,2.00
2023-01-17T23:10:34.690Z,2.00
2023-01-17T23:13:03.006Z,2.00
2023-01-17T23:18:34.657Z,2.00
2023-01-17T23:21:02.843Z,2.00
2023-01-17T23:23:33.256Z,2.00
2023-01-17T23:26:02.109Z,2.00
2023-01-17T23:31:04.891Z,2.00
2023-01-17T23:33:33.411Z,2.00
2023-01-17T23:36:01.652Z,1.90
2023-01-17T23:38:30.141Z,2.00
2023-01-17T23:41:23.554Z,2.00
2023-01-17T23:43:53.387Z,1.90
2023-01-17T23:48:50.668Z,1.90
2023-01-17T23:51:19.219Z,1.90
2023-01-17T23:56:20.695Z,1.90
2023-01-17T23:58:49.066Z,1.90
